Time;durP1;ratioP1;P1;durP2;ratioP2;P2;SDS_P1;SDS_P2;PMS_P1;PMS_P2;Temp;Humidity;BMP_temperature;BMP_pressure;BME280_temperature;BME280_humidity;BME280_pressure;Samples;Min_cycle;Max_cycle;Signal;HPM_P1;HPM_P2
2022/05/29 00:00:56;;;;;;;1.57;0.70;;;20.10;49.80;;;;;;5121416;27;20752;-50
2022/05/29 00:03:37;;;;;;;0.87;0.80;;;20.10;49.80;;;;;;5077402;28;20536;-49
2022/05/29 00:06:19;;;;;;;1.57;0.90;;;20.10;50.10;;;;;;5068909;27;20549;-48
2022/05/29 00:08:58;;;;;;;1.30;0.70;;;20.10;50.00;;;;;;5129086;27;20669;-50
2022/05/29 00:11:40;;;;;;;2.73;1.00;;;20.00;49.90;;;;;;5122402;27;20590;-53
2022/05/29 00:14:21;;;;;;;1.07;0.70;;;20.00;49.90;;;;;;5056155;28;20548;-51
2022/05/29 00:17:01;;;;;;;1.40;1.00;;;20.00;49.90;;;;;;5070138;28;20946;-47
2022/05/29 00:19:42;;;;;;;1.60;0.90;;;20.10;50.20;;;;;;5068498;27;20543;-50
2022/05/29 00:22:23;;;;;;;0.80;0.80;;;20.00;50.00;;;;;;5123106;27;20542;-48
2022/05/29 00:25:08;;;;;;;1.57;0.70;;;20.00;50.00;;;;;;5061150;27;21310;-47
2022/05/29 00:27:49;;;;;;;1.03;0.67;;;20.00;50.10;;;;;;5116858;27;20603;-48
2022/05/29 00:30:30;;;;;;;1.00;0.70;;;20.00;50.20;;;;;;5061528;27;20554;-47
2022/05/29 00:33:11;;;;;;;1.53;0.77;;;20.00;50.10;;;;;;5121842;27;21036;-48
2022/05/29 00:35:52;;;;;;;1.13;1.00;;;20.00;50.20;;;;;;5086548;28;20569;-67
2022/05/29 00:38:40;;;;;;;0.80;0.73;;;20.00;51.30;;;;;;5098891;27;20542;-46
2022/05/29 00:41:27;;;;;;;0.97;0.60;;;20.00;50.10;;;;;;5081208;28;20858;-47
2022/05/29 00:44:15;;;;;;;1.67;0.70;;;20.00;50.10;;;;;;5066287;28;20950;-47
2022/05/29 00:47:02;;;;;;;0.80;0.60;;;20.00;50.20;;;;;;5097021;27;20601;-50
2022/05/29 00:49:44;;;;;;;0.90;0.67;;;20.00;50.20;;;;;;5068550;28;21059;-46
2022/05/29 00:52:29;;;;;;;0.80;0.63;;;20.00;50.20;;;;;;5084744;27;20595;-68
2022/05/29 00:55:15;;;;;;;1.43;0.67;;;20.00;50.20;;;;;;5086031;27;20546;-48
2022/05/29 00:58:01;;;;;;;1.27;0.70;;;20.00;50.20;;;;;;5071180;27;20552;-49
2022/05/29 01:00:42;;;;;;;1.93;0.90;;;20.00;51.50;;;;;;5121977;27;21111;-49
2022/05/29 01:03:23;;;;;;;1.30;0.63;;;20.00;50.20;;;;;;5121526;27;20941;-49
2022/05/29 01:06:03;;;;;;;1.00;0.60;;;20.00;50.20;;;;;;5115822;27;20529;-49
2022/05/29 01:08:43;;;;;;;1.73;0.60;;;19.90;50.20;;;;;;5093813;27;20545;-48
2022/05/29 01:11:37;;;;;;;0.83;0.80;;;20.00;50.30;;;;;;5081638;28;20941;-48
2022/05/29 01:14:25;;;;;;;1.53;1.03;;;20.00;50.40;;;;;;5118541;27;21209;-48
2022/05/29 01:17:19;;;;;;;0.70;0.60;;;19.90;50.20;;;;;;5081319;28;20584;-48
2022/05/29 01:20:09;;;;;;;1.83;0.90;;;19.90;50.30;;;;;;5056748;27;21062;-51
2022/05/29 01:23:24;;;;;;;0.60;0.50;;;19.90;50.20;;;;;;5116366;27;21317;-48
2022/05/29 01:26:33;;;;;;;0.77;0.70;;;19.90;50.20;;;;;;5079849;28;20527;-48
2022/05/29 01:29:19;;;;;;;1.00;0.80;;;19.90;50.20;;;;;;5099113;27;20540;-48
2022/05/29 01:32:06;;;;;;;0.97;0.77;;;19.90;50.30;;;;;;5121717;27;20590;-50
2022/05/29 01:34:52;;;;;;;1.83;0.60;;;19.90;50.50;;;;;;5082646;27;20552;-49
2022/05/29 01:37:41;;;;;;;2.07;0.67;;;19.90;50.40;;;;;;5119546;27;20538;-49
2022/05/29 01:40:31;;;;;;;0.90;0.70;;;19.90;50.50;;;;;;5068221;27;20594;-47
2022/05/29 01:43:20;;;;;;;0.90;0.70;;;19.90;50.40;;;;;;5071426;28;20536;-48
2022/05/29 01:46:05;;;;;;;1.07;0.73;;;19.90;50.50;;;;;;5120166;27;20523;-50
2022/05/29 01:48:53;;;;;;;0.90;0.70;;;19.90;50.50;;;;;;5064611;28;20545;-48
2022/05/29 01:51:39;;;;;;;2.40;1.10;;;19.90;50.50;;;;;;5075485;28;20554;-49
2022/05/29 01:54:24;;;;;;;2.60;1.20;;;19.90;50.50;;;;;;5070721;28;20548;-50
2022/05/29 01:57:10;;;;;;;0.80;0.80;;;19.90;50.60;;;;;;5101413;27;20529;-49
2022/05/29 01:59:56;;;;;;;1.43;0.70;;;19.90;50.60;;;;;;5081804;27;20550;-49
2022/05/29 02:02:40;;;;;;;1.93;0.93;;;19.80;50.50;;;;;;5107597;27;20645;-49
2022/05/29 02:05:24;;;;;;;1.80;0.70;;;19.80;50.50;;;;;;5074749;27;20946;-48
2022/05/29 02:08:13;;;;;;;1.03;0.80;;;19.80;50.50;;;;;;5111582;27;20540;-48
2022/05/29 02:10:58;;;;;;;1.77;0.80;;;19.80;50.50;;;;;;5127824;27;20581;-48
2022/05/29 02:13:42;;;;;;;1.87;1.10;;;19.80;50.60;;;;;;5077906;28;20527;-49
2022/05/29 02:16:30;;;;;;;0.83;0.67;;;19.80;50.70;;;;;;5127478;27;20519;-49
2022/05/29 02:19:17;;;;;;;1.73;0.83;;;19.80;50.60;;;;;;5078931;28;20545;-48
2022/05/29 02:22:01;;;;;;;1.20;0.60;;;19.80;50.60;;;;;;5076394;28;20533;-49
2022/05/29 02:24:47;;;;;;;0.90;0.60;;;19.80;50.60;;;;;;5102747;27;20600;-48
2022/05/29 02:27:31;;;;;;;0.70;0.60;;;19.80;50.50;;;;;;5085188;28;20538;-49
2022/05/29 02:30:14;;;;;;;1.07;0.80;;;19.80;50.70;;;;;;5078844;27;21069;-49
2022/05/29 02:33:03;;;;;;;1.43;0.67;;;19.80;50.70;;;;;;5087066;27;20597;-48
2022/05/29 02:35:53;;;;;;;1.30;0.80;;;19.80;50.80;;;;;;5082006;28;20534;-48
2022/05/29 02:38:42;;;;;;;1.17;0.83;;;19.80;50.80;;;;;;5069987;27;20541;-49
2022/05/29 02:41:30;;;;;;;2.07;1.07;;;19.80;50.80;;;;;;5087622;28;21054;-47
2022/05/29 02:44:18;;;;;;;0.60;0.60;;;19.80;50.70;;;;;;5064691;27;20541;-49
2022/05/29 02:47:08;;;;;;;1.10;0.80;;;19.80;50.70;;;;;;5126309;27;20550;-49
2022/05/29 02:50:03;;;;;;;0.70;0.60;;;19.80;50.80;;;;;;5074511;27;20552;-48
2022/05/29 02:52:44;;;;;;;1.80;1.43;;;19.80;50.90;;;;;;5125004;27;20574;-48
2022/05/29 02:55:25;;;;;;;1.80;0.60;;;19.70;50.70;;;;;;5073673;27;20547;-47
2022/05/29 02:58:18;;;;;;;1.00;0.80;;;19.80;50.80;;;;;;5079316;27;20545;-50
2022/05/29 03:01:13;;;;;;;1.17;1.03;;;19.70;50.70;;;;;;5087449;27;20570;-48
2022/05/29 03:04:07;;;;;;;1.27;0.50;;;19.70;50.80;;;;;;5075623;27;20546;-48
2022/05/29 03:06:53;;;;;;;2.47;0.90;;;19.70;50.80;;;;;;5121061;27;20527;-47
2022/05/29 03:09:45;;;;;;;1.27;0.67;;;19.70;50.80;;;;;;5088899;27;20559;-46
2022/05/29 03:12:32;;;;;;;1.87;1.20;;;19.70;50.80;;;;;;5121771;27;20520;-47
2022/05/29 03:15:29;;;;;;;1.70;0.63;;;19.70;50.80;;;;;;5105185;27;20540;-49
2022/05/29 03:18:21;;;;;;;1.20;0.70;;;19.70;50.80;;;;;;5079758;28;21043;-50
2022/05/29 03:21:08;;;;;;;1.50;0.73;;;19.70;50.90;;;;;;5082286;28;21051;-48
2022/05/29 03:23:56;;;;;;;0.90;0.90;;;19.70;51.00;;;;;;5074105;28;20534;-49
2022/05/29 03:26:50;;;;;;;0.67;0.67;;;19.70;51.00;;;;;;5081815;28;20525;-49
2022/05/29 03:29:37;;;;;;;1.70;0.80;;;19.70;51.00;;;;;;5065709;28;20537;-54
2022/05/29 03:32:21;;;;;;;1.50;0.70;;;19.70;51.00;;;;;;5081746;27;20515;-48
2022/05/29 03:35:17;;;;;;;1.50;0.97;;;19.60;50.90;;;;;;5063489;27;20544;-47
2022/05/29 03:37:59;;;;;;;1.27;0.80;;;19.60;52.20;;;;;;5071242;27;21121;-48
2022/05/29 03:40:41;;;;;;;0.67;0.60;;;19.70;51.10;;;;;;5062512;27;20543;-46
2022/05/29 03:43:22;;;;;;;1.63;0.73;;;19.60;51.10;;;;;;5092648;27;20968;-48
2022/05/29 03:46:03;;;;;;;1.37;0.80;;;19.60;51.10;;;;;;5121396;27;20881;-50
2022/05/29 03:48:45;;;;;;;1.03;0.60;;;19.60;51.10;;;;;;5084485;27;20594;-49
2022/05/29 03:51:26;;;;;;;1.03;0.83;;;19.60;51.20;;;;;;5102431;27;20524;-51
2022/05/29 03:54:08;;;;;;;1.03;0.80;;;19.60;51.20;;;;;;5073200;28;20539;-48
2022/05/29 03:56:49;;;;;;;1.63;0.90;;;19.60;51.20;;;;;;5114805;27;20819;-49
2022/05/29 03:59:30;;;;;;;0.97;0.70;;;19.60;51.20;;;;;;5065448;27;20601;-48
2022/05/29 04:02:12;;;;;;;1.00;0.63;;;19.60;51.20;;;;;;5102459;27;20598;-49
2022/05/29 04:04:52;;;;;;;1.60;0.80;;;19.60;51.10;;;;;;5067596;27;21066;-48
2022/05/29 04:13:39;;;;;;;3.03;1.20;;;19.50;51.10;;;;;;5125503;27;20580;-48
2022/05/29 04:16:20;;;;;;;1.63;1.23;;;19.50;51.10;;;;;;5122510;27;20536;-50
2022/05/29 04:19:02;;;;;;;3.00;1.20;;;19.60;51.10;;;;;;5067339;27;20558;-47
2022/05/29 04:21:44;;;;;;;1.10;0.70;;;19.60;51.30;;;;;;5081913;28;20880;-48
2022/05/29 04:24:25;;;;;;;0.90;0.73;;;19.60;51.30;;;;;;5070567;27;20648;-48
2022/05/29 04:27:11;;;;;;;1.57;0.90;;;19.50;51.30;;;;;;5081417;27;20607;-49
2022/05/29 04:29:51;;;;;;;0.90;0.80;;;19.50;51.30;;;;;;5082814;27;20545;-52
2022/05/29 04:35:35;;;;;;;1.57;1.47;;;19.50;51.20;;;;;;5061872;27;20543;-49
2022/05/29 04:38:16;;;;;;;0.80;0.70;;;19.50;51.20;;;;;;5049238;27;20551;-48
2022/05/29 04:40:58;;;;;;;2.23;0.70;;;19.50;51.30;;;;;;5082204;28;20520;-49
2022/05/29 04:43:38;;;;;;;2.20;0.70;;;19.50;51.40;;;;;;5107629;27;20579;-48
2022/05/29 04:46:20;;;;;;;1.37;0.83;;;19.50;51.30;;;;;;5080856;28;20579;-47
2022/05/29 04:49:02;;;;;;;2.27;1.00;;;19.50;51.40;;;;;;5075176;28;20533;-47
2022/05/29 04:51:43;;;;;;;1.10;0.70;;;19.50;51.40;;;;;;5079256;28;20589;-49
2022/05/29 04:54:27;;;;;;;1.40;1.07;;;19.50;51.40;;;;;;5093668;27;21064;-48
2022/05/29 04:57:09;;;;;;;3.03;1.00;;;19.50;51.50;;;;;;5122196;27;20649;-48
2022/05/29 04:59:50;;;;;;;1.23;0.80;;;19.50;51.40;;;;;;5068193;28;20605;-47
2022/05/29 05:02:33;;;;;;;1.43;0.70;;;19.40;51.30;;;;;;5122589;27;20571;-48
2022/05/29 05:05:13;;;;;;;1.00;0.70;;;19.40;51.30;;;;;;5047988;27;20556;-48
2022/05/29 05:07:54;;;;;;;1.37;0.70;;;19.40;51.30;;;;;;5075676;27;20543;-48
2022/05/29 05:10:36;;;;;;;2.60;1.10;;;19.40;51.40;;;;;;5062466;28;20624;-47
2022/05/29 05:13:17;;;;;;;1.07;0.93;;;19.40;51.50;;;;;;5113291;27;20531;-48
2022/05/29 05:16:02;;;;;;;1.13;0.87;;;19.40;51.30;;;;;;5099682;27;21113;-48
2022/05/29 05:18:43;;;;;;;1.83;0.80;;;19.40;51.50;;;;;;5090086;27;20565;-48
2022/05/29 05:21:25;;;;;;;1.30;0.70;;;19.40;51.40;;;;;;5071015;27;20599;-47
2022/05/29 05:24:07;;;;;;;2.13;1.00;;;19.40;51.50;;;;;;5073861;27;21013;-47
2022/05/29 05:26:47;;;;;;;1.00;0.90;;;19.30;51.40;;;;;;5122485;27;20587;-48
2022/05/29 05:29:29;;;;;;;1.27;0.70;;;19.40;51.50;;;;;;5078665;27;20581;-49
2022/05/29 05:32:10;;;;;;;2.60;0.80;;;19.30;51.50;;;;;;5061626;27;20671;-50
2022/05/29 05:34:52;;;;;;;1.47;0.70;;;19.30;51.50;;;;;;5066403;27;20541;-48
2022/05/29 05:37:35;;;;;;;0.70;0.70;;;19.40;51.60;;;;;;5068495;28;20549;-49
2022/05/29 05:40:16;;;;;;;2.77;1.20;;;19.40;51.40;;;;;;5064489;27;20599;-48
2022/05/29 05:42:57;;;;;;;0.90;0.83;;;19.30;51.30;;;;;;5095822;27;20536;-50
2022/05/29 05:45:41;;;;;;;2.03;0.90;;;19.30;51.50;;;;;;5138186;27;21119;-48
2022/05/29 05:48:23;;;;;;;0.90;0.80;;;19.30;51.50;;;;;;5078774;27;20565;-48
2022/05/29 05:51:03;;;;;;;1.37;0.90;;;19.30;51.60;;;;;;5075880;28;20533;-46
2022/05/29 05:53:44;;;;;;;1.57;1.13;;;19.30;51.60;;;;;;5076832;27;20529;-48
2022/05/29 05:56:26;;;;;;;1.00;0.90;;;19.30;51.50;;;;;;5121387;27;20525;-47
2022/05/29 05:59:07;;;;;;;1.43;0.80;;;19.30;51.60;;;;;;5106534;27;20572;-49
2022/05/29 06:01:47;;;;;;;1.13;0.83;;;19.30;51.60;;;;;;5081711;28;20574;-49
2022/05/29 06:04:28;;;;;;;1.40;0.93;;;19.30;51.60;;;;;;5079907;27;20667;-48
2022/05/29 06:07:09;;;;;;;0.90;0.73;;;19.30;51.60;;;;;;5106890;27;20538;-49
2022/05/29 06:09:52;;;;;;;1.30;0.87;;;19.30;51.70;;;;;;5067220;27;21209;-49
2022/05/29 06:12:36;;;;;;;1.70;1.03;;;19.30;51.60;;;;;;5078262;27;20524;-47
2022/05/29 06:15:19;;;;;;;1.53;0.90;;;19.30;51.60;;;;;;5062777;27;20541;-47
2022/05/29 06:17:59;;;;;;;1.83;1.30;;;19.30;51.60;;;;;;5121177;27;20541;-46
2022/05/29 06:20:38;;;;;;;1.83;1.10;;;19.30;51.60;;;;;;5060879;28;20959;-49
2022/05/29 06:23:18;;;;;;;2.07;1.10;;;19.30;51.70;;;;;;5098671;27;20540;-49
2022/05/29 06:26:03;;;;;;;1.80;0.70;;;19.20;51.70;;;;;;5081180;27;20503;-48
2022/05/29 06:28:44;;;;;;;1.10;0.80;;;19.20;51.70;;;;;;5132444;27;1240408;-49
2022/05/29 06:31:25;;;;;;;4.30;1.00;;;19.20;51.60;;;;;;5122580;27;20573;-48
2022/05/29 06:34:06;;;;;;;1.33;1.00;;;19.20;51.60;;;;;;5080460;27;20596;-47
2022/05/29 06:36:45;;;;;;;1.47;1.00;;;19.20;51.60;;;;;;5092831;27;20599;-49
2022/05/29 06:39:25;;;;;;;0.70;0.70;;;19.20;51.80;;;;;;5093326;27;21157;-49
2022/05/29 06:42:07;;;;;;;2.03;1.00;;;19.20;51.70;;;;;;5142354;27;20575;-49
2022/05/29 06:44:51;;;;;;;1.33;0.93;;;19.20;51.60;;;;;;5063155;28;21048;-50
2022/05/29 06:47:32;;;;;;;1.20;0.90;;;19.20;51.70;;;;;;5080758;27;21009;-50
2022/05/29 06:50:12;;;;;;;1.57;0.90;;;19.10;51.60;;;;;;5049378;28;20604;-47
2022/05/29 06:52:53;;;;;;;1.63;1.00;;;19.20;51.60;;;;;;5118113;27;20525;-50
2022/05/29 06:55:37;;;;;;;0.90;0.57;;;19.20;51.70;;;;;;5058921;28;20571;-49
2022/05/29 06:58:22;;;;;;;2.00;0.97;;;19.20;51.80;;;;;;5123418;27;20560;-46
2022/05/29 07:07:08;;;;;;;0.93;0.80;;;19.10;51.70;;;;;;5080716;27;20581;-48
2022/05/29 07:09:49;;;;;;;1.40;1.30;;;19.20;51.80;;;;;;5108545;27;20550;-47
2022/05/29 07:12:32;;;;;;;2.77;0.90;;;19.10;51.70;;;;;;5099261;27;20936;-46
2022/05/29 07:15:17;;;;;;;1.03;0.93;;;19.10;51.70;;;;;;5073666;27;20536;-45
2022/05/29 07:17:58;;;;;;;1.00;0.90;;;19.20;51.80;;;;;;5125683;27;20572;-67
2022/05/29 07:20:38;;;;;;;1.20;1.03;;;19.10;51.70;;;;;;5063154;27;20552;-49
2022/05/29 07:23:19;;;;;;;1.43;1.00;;;19.10;51.70;;;;;;5071540;28;20528;-48
2022/05/29 07:26:00;;;;;;;1.20;0.93;;;19.10;51.70;;;;;;5079351;27;20528;-49
2022/05/29 07:28:42;;;;;;;1.30;0.90;;;19.10;51.70;;;;;;5092902;27;20545;-48
2022/05/29 07:31:23;;;;;;;3.43;1.23;;;19.10;51.60;;;;;;5080530;28;20528;-48
2022/05/29 07:34:05;;;;;;;1.27;0.73;;;19.10;51.70;;;;;;5072430;28;20537;-49
2022/05/29 07:36:49;;;;;;;1.03;0.93;;;19.10;51.70;;;;;;5073110;28;20537;-48
2022/05/29 07:39:37;;;;;;;2.93;1.30;;;19.10;51.70;;;;;;5029089;28;20607;-47
2022/05/29 07:45:16;;;;;;;1.30;1.10;;;19.10;51.90;;;;;;5067488;27;20536;-48
2022/05/29 07:48:00;;;;;;;1.50;1.17;;;19.10;51.90;;;;;;5079493;27;20532;-48
2022/05/29 07:50:42;;;;;;;1.30;0.77;;;19.00;51.80;;;;;;5098245;27;21688;-46
2022/05/29 07:53:26;;;;;;;1.63;1.10;;;19.10;51.70;;;;;;5080002;28;21050;-49
2022/05/29 07:56:08;;;;;;;1.17;0.77;;;19.10;51.90;;;;;;5120194;27;20513;-47
2022/05/29 07:58:49;;;;;;;1.30;1.20;;;19.00;51.90;;;;;;5082879;27;20540;-47
2022/05/29 08:01:31;;;;;;;1.63;1.00;;;19.00;51.80;;;;;;5123494;27;20574;-50
2022/05/29 08:04:12;;;;;;;2.20;1.20;;;19.00;51.90;;;;;;5071748;27;20556;-47
2022/05/29 08:06:52;;;;;;;1.60;1.50;;;19.00;51.80;;;;;;5080581;28;20940;-48
2022/05/29 08:09:34;;;;;;;1.00;0.80;;;19.00;51.90;;;;;;5063939;27;20560;-48
2022/05/29 08:12:15;;;;;;;1.20;1.00;;;19.00;51.90;;;;;;5121823;27;20592;-48
2022/05/29 08:14:54;;;;;;;2.43;0.80;;;19.00;52.00;;;;;;5066141;27;21129;-48
2022/05/29 08:17:38;;;;;;;1.80;0.90;;;19.00;51.90;;;;;;5080108;27;20524;-49
2022/05/29 08:20:20;;;;;;;0.80;0.70;;;19.00;51.90;;;;;;5063032;27;20576;-48
2022/05/29 08:23:02;;;;;;;1.00;0.90;;;19.00;52.00;;;;;;5119457;27;20552;-49
2022/05/29 08:31:41;;;;;;;1.37;0.90;;;19.00;52.10;;;;;;5141822;27;20580;-51
2022/05/29 08:34:25;;;;;;;1.53;1.10;;;18.90;51.80;;;;;;5072179;27;20964;-48
2022/05/29 08:37:12;;;;;;;1.47;1.20;;;18.90;51.80;;;;;;5118757;27;20584;-50
2022/05/29 08:39:52;;;;;;;0.87;0.87;;;18.90;51.80;;;;;;5053179;27;21034;-49
2022/05/29 08:42:34;;;;;;;1.63;0.83;;;18.90;51.90;;;;;;5118986;27;20555;-48
2022/05/29 08:45:18;;;;;;;1.53;0.87;;;18.90;52.00;;;;;;5082978;27;21405;-48
2022/05/29 08:48:01;;;;;;;1.50;0.97;;;18.90;51.90;;;;;;5091794;27;21749;-49
2022/05/29 08:50:53;;;;;;;0.90;0.80;;;18.90;51.90;;;;;;5059161;27;20557;-50
2022/05/29 08:53:43;;;;;;;1.27;0.70;;;18.90;51.70;;;;;;5075293;27;20607;-49
2022/05/29 08:56:33;;;;;;;1.37;1.23;;;18.90;51.90;;;;;;5100124;27;20511;-48
2022/05/29 08:59:23;;;;;;;0.80;0.60;;;18.90;52.00;;;;;;5102666;27;20548;-47
2022/05/29 09:02:13;;;;;;;0.73;0.70;;;18.90;52.00;;;;;;5122429;27;21020;-46
2022/05/29 09:05:00;;;;;;;2.23;0.53;;;18.90;52.10;;;;;;5074225;27;21057;-48
2022/05/29 09:07:43;;;;;;;1.43;0.80;;;18.90;52.00;;;;;;5112433;27;20571;-48
2022/05/29 09:10:34;;;;;;;1.07;0.97;;;18.90;52.10;;;;;;5103732;27;20952;-47
2022/05/29 09:13:24;;;;;;;1.40;1.30;;;18.90;52.10;;;;;;5099540;27;21125;-50
2022/05/29 09:16:11;;;;;;;1.77;1.00;;;18.90;51.80;;;;;;5081208;27;20562;-49
2022/05/29 09:19:08;;;;;;;1.20;1.10;;;18.90;52.10;;;;;;5071957;27;20955;-48
2022/05/29 09:21:59;;;;;;;0.93;0.83;;;18.90;51.90;;;;;;5058803;27;20614;-48
2022/05/29 09:24:54;;;;;;;0.90;0.70;;;18.90;52.00;;;;;;5077039;27;20548;-48
2022/05/29 09:27:36;;;;;;;1.23;1.13;;;18.90;51.90;;;;;;5075451;28;20598;-48
2022/05/29 09:30:18;;;;;;;1.00;0.80;;;18.90;51.20;;;;;;5071399;27;20614;-47
2022/05/29 09:33:02;;;;;;;0.83;0.83;;;18.90;51.90;;;;;;5089054;27;20706;-47
2022/05/29 09:35:50;;;;;;;1.17;0.97;;;18.90;52.10;;;;;;5101177;27;20522;-48
2022/05/29 09:38:38;;;;;;;1.13;0.90;;;18.90;51.70;;;;;;5120494;27;20537;-47
2022/05/29 09:41:23;;;;;;;1.07;0.97;;;18.90;51.70;;;;;;5101172;27;20926;-49
2022/05/29 09:44:13;;;;;;;1.23;0.70;;;18.90;51.50;;;;;;5071859;27;20615;-49
2022/05/29 09:49:40;;;;;;;1.30;0.77;;;18.80;51.80;;;;;;5081350;28;20545;-50
2022/05/29 09:50:08;;;;;;;1.70;0.97;;;18.90;51.90;;;;;;5108388;27;20912;-46
2022/05/29 09:52:50;;;;;;;2.03;0.80;;;18.80;51.80;;;;;;5103478;27;20658;-49
2022/05/29 09:55:34;;;;;;;1.03;0.93;;;18.90;51.90;;;;;;5061595;27;20599;-48
2022/05/29 09:58:25;;;;;;;1.10;1.00;;;18.90;52.00;;;;;;5103479;27;20592;-49
2022/05/29 10:01:09;;;;;;;0.80;0.50;;;18.90;52.10;;;;;;5080355;27;20520;-48
2022/05/29 10:03:53;;;;;;;1.10;0.80;;;18.90;52.10;;;;;;5109931;27;20540;-49
2022/05/29 10:06:41;;;;;;;1.37;0.83;;;18.90;51.80;;;;;;5094108;27;20585;-48
2022/05/29 10:09:24;;;;;;;1.03;0.60;;;18.90;51.20;;;;;;5071881;27;21208;-48
2022/05/29 10:12:19;;;;;;;0.70;0.70;;;18.90;51.60;;;;;;5101115;27;20567;-49
2022/05/29 10:15:05;;;;;;;1.23;0.70;;;18.90;51.70;;;;;;5084598;27;20593;-48
2022/05/29 10:17:49;;;;;;;0.93;0.73;;;18.80;51.80;;;;;;5090359;27;20539;-47
2022/05/29 10:20:33;;;;;;;1.20;0.90;;;18.90;51.80;;;;;;5067945;27;20541;-50
2022/05/29 10:23:32;;;;;;;0.80;0.80;;;18.90;51.80;;;;;;5052446;28;20796;-48
2022/05/29 10:26:30;;;;;;;1.92;1.20;;;18.90;51.80;;;;;;5140371;27;20403;-47
2022/05/29 10:29:18;;;;;;;1.90;0.93;;;18.90;51.70;;;;;;5120654;27;20558;-46
2022/05/29 10:32:03;;;;;;;2.30;1.03;;;18.90;51.80;;;;;;5080932;27;21006;-47
2022/05/29 10:34:45;;;;;;;0.93;0.90;;;18.80;51.60;;;;;;5080880;27;21009;-47
2022/05/29 10:37:44;;;;;;;1.60;0.80;;;18.90;51.60;;;;;;5074830;27;21088;-46
2022/05/29 10:40:29;;;;;;;1.00;0.80;;;18.80;51.40;;;;;;5061953;27;20599;-48
2022/05/29 10:43:10;;;;;;;0.87;0.70;;;18.80;51.60;;;;;;5067532;28;20805;-47
2022/05/29 10:45:51;;;;;;;1.07;0.83;;;18.80;51.80;;;;;;5120658;27;20525;-46
2022/05/29 10:49:02;;;;;;;1.37;0.90;;;18.80;51.70;;;;;;5077621;27;20528;-49
2022/05/29 10:52:09;;;;;;;1.10;0.97;;;18.80;51.50;;;;;;5078746;28;20535;-48
2022/05/29 10:55:13;;;;;;;1.00;0.80;;;18.80;51.60;;;;;;5082497;27;20575;-48
2022/05/29 10:58:22;;;;;;;0.97;0.93;;;18.80;52.70;;;;;;5071575;28;20594;-49
2022/05/29 11:04:50;;;;;;;3.27;1.77;;;18.80;51.10;;;;;;5071713;27;20836;-50
2022/05/29 11:07:42;;;;;;;4.63;2.33;;;18.80;49.70;;;;;;5062636;27;20622;-48
2022/05/29 11:10:41;;;;;;;4.23;1.67;;;18.80;49.40;;;;;;5064337;27;20616;-49
2022/05/29 11:13:41;;;;;;;3.47;2.33;;;18.70;50.40;;;;;;5094665;27;20534;-47
2022/05/29 11:16:30;;;;;;;3.80;1.70;;;18.70;51.00;;;;;;5120238;27;20530;-48
2022/05/29 11:19:29;;;;;;;9.60;2.03;;;18.70;51.10;;;;;;5073437;27;20609;-47
2022/05/29 11:22:20;;;;;;;5.00;1.73;;;18.70;51.20;;;;;;5090416;27;20590;-48
2022/05/29 11:25:12;;;;;;;4.83;1.93;;;18.70;51.30;;;;;;5052336;27;20573;-48
2022/05/29 11:28:18;;;;;;;5.10;2.13;;;18.70;51.20;;;;;;5072110;27;20908;-48
2022/05/29 11:31:08;;;;;;;7.83;1.77;;;18.70;51.30;;;;;;5081353;27;21046;-47
2022/05/29 11:34:07;;;;;;;3.83;1.80;;;18.70;51.40;;;;;;5076091;27;20951;-49
2022/05/29 11:37:06;;;;;;;5.50;1.80;;;18.70;51.60;;;;;;5057159;27;20590;-49
2022/05/29 11:39:53;;;;;;;3.67;1.27;;;18.70;51.60;;;;;;5064443;27;20566;-49
2022/05/29 11:42:41;;;;;;;4.87;2.00;;;18.70;51.70;;;;;;5099157;27;20526;-48
2022/05/29 11:51:06;;;;;;;2.57;1.27;;;18.70;51.80;;;;;;5082360;27;20544;-49
2022/05/29 11:51:43;;;;;;;1.90;1.20;;;18.70;52.00;;;;;;5078843;28;21066;-46
2022/05/29 11:54:33;;;;;;;3.73;1.57;;;18.70;52.00;;;;;;5070568;27;20582;-48
2022/05/29 11:57:21;;;;;;;2.40;1.37;;;18.70;52.10;;;;;;5121616;27;21095;-47
2022/05/29 12:00:10;;;;;;;2.80;1.90;;;18.70;52.20;;;;;;5065835;27;21056;-47
2022/05/29 12:02:57;;;;;;;1.83;1.30;;;18.70;52.10;;;;;;5122103;27;20520;-49
2022/05/29 12:05:45;;;;;;;4.03;1.40;;;18.70;52.10;;;;;;5059554;27;20556;-50
2022/05/29 12:08:32;;;;;;;3.70;1.60;;;18.70;52.20;;;;;;5067386;28;20598;-51
2022/05/29 12:11:31;;;;;;;3.50;1.70;;;18.70;52.30;;;;;;5080080;28;20588;-46
2022/05/29 12:14:20;;;;;;;1.50;1.20;;;18.70;52.30;;;;;;5050425;27;20542;-47
2022/05/29 12:17:09;;;;;;;1.43;1.33;;;18.70;52.30;;;;;;5116867;27;20526;-48
2022/05/29 12:19:53;;;;;;;1.73;1.10;;;18.70;52.50;;;;;;5069237;27;21521;-47
2022/05/29 12:22:42;;;;;;;2.20;1.70;;;18.70;52.40;;;;;;5116433;27;20524;-48
2022/05/29 12:25:32;;;;;;;1.40;1.23;;;18.70;52.50;;;;;;5050450;27;20691;-48
2022/05/29 12:28:24;;;;;;;2.57;1.40;;;18.70;52.60;;;;;;5111917;27;20563;-47
2022/05/29 12:31:08;;;;;;;1.90;1.33;;;18.70;52.80;;;;;;5119636;27;20552;-47
2022/05/29 12:33:50;;;;;;;2.00;0.90;;;18.70;53.00;;;;;;5114083;27;20560;-49
2022/05/29 12:36:50;;;;;;;1.80;1.20;;;18.70;52.90;;;;;;5081077;28;20577;-48
2022/05/29 12:40:00;;;;;;;1.77;1.03;;;18.70;53.20;;;;;;5079152;27;20731;-47
2022/05/29 12:42:59;;;;;;;1.90;1.13;;;18.70;53.10;;;;;;5096968;27;20951;-48
2022/05/29 12:45:47;;;;;;;1.60;1.33;;;18.70;53.00;;;;;;5058204;27;20556;-46
2022/05/29 12:49:01;;;;;;;1.30;1.10;;;18.70;53.00;;;;;;5078591;28;20529;-47
2022/05/29 12:52:02;;;;;;;1.57;1.10;;;18.70;53.20;;;;;;5101060;27;20514;-48
2022/05/29 12:55:02;;;;;;;2.40;1.07;;;18.70;52.90;;;;;;5109107;27;20618;-49
2022/05/29 12:58:01;;;;;;;2.30;1.50;;;18.70;52.90;;;;;;5076474;28;20605;-48
2022/05/29 13:01:03;;;;;;;2.13;1.70;;;18.70;52.80;;;;;;5063316;27;20552;-50
2022/05/29 13:04:14;;;;;;;1.60;1.50;;;18.80;52.90;;;;;;5073878;28;20619;-47
2022/05/29 13:07:23;;;;;;;2.70;1.27;;;18.80;53.00;;;;;;5110703;27;20549;-50
2022/05/29 13:10:17;;;;;;;1.40;1.30;;;18.80;53.00;;;;;;4977437;28;20556;-48
2022/05/29 13:13:09;;;;;;;2.30;1.10;;;18.80;52.90;;;;;;5076463;27;20551;-48
2022/05/29 13:15:51;;;;;;;3.17;1.57;;;18.80;52.90;;;;;;5085376;27;20532;-47
2022/05/29 13:18:41;;;;;;;2.23;1.00;;;18.80;52.70;;;;;;5104788;27;20534;-48
2022/05/29 13:21:23;;;;;;;1.20;1.10;;;18.80;52.70;;;;;;5083974;28;20578;-47
2022/05/29 13:24:16;;;;;;;1.50;1.30;;;18.80;52.70;;;;;;5105457;27;20548;-48
2022/05/29 13:27:33;;;;;;;3.97;1.27;;;18.80;52.50;;;;;;5100323;27;20560;-48
2022/05/29 13:31:01;;;;;;;3.87;1.43;;;18.80;52.70;;;;;;5030980;27;20644;-48
2022/05/29 13:33:56;;;;;;;1.23;1.13;;;18.80;52.80;;;;;;5114110;27;20574;-49
2022/05/29 13:37:21;;;;;;;2.90;1.10;;;18.80;52.80;;;;;;5079499;28;20580;-47
2022/05/29 13:40:06;;;;;;;2.03;1.70;;;18.80;52.90;;;;;;5053960;27;20788;-46
2022/05/29 13:42:49;;;;;;;2.40;1.10;;;18.80;52.90;;;;;;5138102;27;20551;-48
2022/05/29 13:45:58;;;;;;;1.40;1.00;;;18.80;53.10;;;;;;5046056;27;20550;-49
2022/05/29 13:49:02;;;;;;;1.33;1.07;;;18.80;53.30;;;;;;5120462;27;20530;-48
2022/05/29 13:51:44;;;;;;;2.30;0.80;;;18.80;53.40;;;;;;5115923;27;20586;-47
2022/05/29 13:54:28;;;;;;;1.90;1.10;;;18.80;53.30;;;;;;5075219;27;20534;-50
2022/05/29 13:57:10;;;;;;;1.40;1.00;;;18.80;53.50;;;;;;5081418;27;20544;-47
2022/05/29 14:05:57;;;;;;;1.63;1.10;;;18.80;53.40;;;;;;5079512;27;20608;-49
2022/05/29 14:08:56;;;;;;;1.90;1.27;;;18.80;53.50;;;;;;5072073;27;20598;-49
2022/05/29 14:11:49;;;;;;;1.20;1.10;;;18.80;53.50;;;;;;5121583;27;20946;-46
2022/05/29 14:14:55;;;;;;;1.07;0.80;;;18.80;53.50;;;;;;5105820;27;20563;-48
2022/05/29 14:17:44;;;;;;;1.77;0.97;;;18.80;53.60;;;;;;5104502;27;20589;-49
2022/05/29 14:20:36;;;;;;;1.20;1.10;;;18.80;53.60;;;;;;5063939;27;20831;-46
2022/05/29 14:23:41;;;;;;;0.80;0.77;;;18.80;53.60;;;;;;5130220;27;20557;-50
2022/05/29 14:26:49;;;;;;;1.30;1.00;;;18.80;53.60;;;;;;5120316;27;20538;-50
2022/05/29 14:30:02;;;;;;;2.40;1.20;;;18.80;53.60;;;;;;5065458;27;20551;-48
2022/05/29 14:33:12;;;;;;;1.60;1.37;;;18.80;53.70;;;;;;5081557;27;21001;-47
2022/05/29 14:36:02;;;;;;;1.33;0.97;;;18.80;53.70;;;;;;5070231;28;20911;-49
2022/05/29 14:39:05;;;;;;;1.53;1.30;;;18.70;53.60;;;;;;5086557;27;20539;-48
2022/05/29 14:41:48;;;;;;;1.10;1.00;;;18.80;53.60;;;;;;5081067;27;20529;-47
2022/05/29 14:44:38;;;;;;;1.00;0.90;;;18.80;53.70;;;;;;5087225;27;20657;-47
2022/05/29 14:47:29;;;;;;;1.03;0.70;;;18.70;54.90;;;;;;5101281;27;20992;-47
2022/05/29 14:50:16;;;;;;;0.90;0.90;;;18.80;53.70;;;;;;5065321;27;20602;-50
2022/05/29 14:53:04;;;;;;;1.93;1.07;;;18.70;53.70;;;;;;5078513;28;20527;-49
2022/05/29 14:55:48;;;;;;;0.90;0.90;;;18.80;53.70;;;;;;5042086;27;20580;-48
2022/05/29 14:58:31;;;;;;;0.80;0.80;;;18.70;53.70;;;;;;5135161;27;20545;-50
2022/05/29 15:01:36;;;;;;;1.00;0.90;;;18.70;53.70;;;;;;5122147;27;20521;-48
2022/05/29 15:04:25;;;;;;;1.03;0.90;;;18.80;53.80;;;;;;5071564;28;20591;-47
2022/05/29 15:10:31;;;;;;;3.73;1.33;;;18.80;53.90;;;;;;5071941;27;20545;-50
2022/05/29 15:13:16;;;;;;;1.00;0.80;;;18.80;53.90;;;;;;5072548;27;20559;-50